Terminal Aerodrome Forecast
Issued by NWS New Orleans/Baton Rouge, LA

Home | Current Version | Previous Version | Text Only | Print | Product List | Glossary On
Versions: 1 2 3 4 5 6 7 8 9 10 11 12 13 14 15 16 17 18 19 20 21 22 23 24 25 26 27 28 29
000
FTUS44 KLIX 200700 AAA
TAFNEW
TAF AMD
KNEW 200701Z 2007/2106 06014KT P6SM -RA SCT007 BKN015 OVC030
     FM200800 05014G20KT P6SM OVC006
     FM201400 03013KT P6SM OVC012
     FM201600 02011KT P6SM OVC015
     FM201900 02011KT P6SM BKN020
     FM210000 02011KT P6SM BKN035=

USA.gov is the U.S. government's official web portal to all federal, state and local government web resources and services.